• Join FlightAware (Why Join?)
  • Login
  • US Flag 
01:19AM EDT


 

Airport Tracker/Info


-or-


 

Live Flight TrackerFlight Track Log ✈ FLG3861 ✈ 27-Mar-2014 ✈ KDTW - KBGM

Flight Track Log - Related Links

Times and Time Zones

All times are in EDT time to prevent confusion due to time zone crossing. See the FLG3861 flight status page for this flight to view local times or setup timezone preferences in your user account.

Time Position Orientation Groundspeed Altitude Reporting Facility
EDT Latitude Longitude Course Direction KTS MPH feet Rate Location/Type
09:54PM 42.2031 -83.3525 170° South 151 174 1,400  Level Cleveland Center
09:55PM 42.1700 -83.3450 170° South 170 196 3,400 1,980 Climbing Cleveland Center
09:56PM 42.1511 -83.2664 108° East 330 380 5,300 1,680 Climbing Cleveland Center
09:56PM 42.1525 -83.2633 58° Northeast 264 304 5,400 2,940 Climbing Cleveland Center
09:57PM 42.1847 -83.1556 68° East 312 359 8,300 2,760 Climbing Cleveland Center
09:57PM 42.1872 -83.1494 61° Northeast 314 361 8,300 1,920 Level Cleveland Center
09:58PM 42.2189 -83.0306 70° East 337 388 10,600 1,860 Climbing Cleveland Center
09:59PM 42.2525 -82.9039 70° East 358 412 12,200 1,500 Climbing Cleveland Center
10:00PM 42.2878 -82.7664 71° East 385 443 13,700 1,560 Climbing Cleveland Center
10:01PM 42.3319 -82.5950 71° East 401 461 15,500 1,560 Climbing Cleveland Center
10:02PM 42.3675 -82.4494 72° East 407 468 17,000 1,200 Climbing Cleveland Center
10:03PM 42.3689 -82.2944 89° East 410 472 18,000 900 Climbing Cleveland Center
10:04PM 42.3683 -82.1258 90° East 422 486 18,900 720 Climbing Cleveland Center
10:05PM 42.3694 -81.9592 89° East 434 499 19,500 540 Climbing Cleveland Center
10:06PM 42.3678 -81.7875 91° East 447 514 20,100 600 Climbing Cleveland Center
10:07PM 42.3683 -81.6128 90° East 456 525 20,800 420 Climbing Cleveland Center
10:08PM 42.3675 -81.4372 90° East 461 531 21,000 60 Climbing Cleveland Center
10:09PM 42.3667 -81.2558 90° East 472 543 21,000  Level Cleveland Center
10:10PM 42.3656 -81.0719 90° East 480 552 21,000  Level Cleveland Center
10:11PM 42.3625 -80.8867 91° East 483 556 21,000  Level Cleveland Center
10:12PM 42.3611 -80.7006 91° East 485 558 21,000  Level Cleveland Center
10:13PM 42.3594 -80.5178 91° East 487 560 21,000  Level Cleveland Center
10:14PM 42.3558 -80.3044 91° East 483 556 21,000  Level Cleveland Center
10:15PM 42.3544 -80.1214 91° East 483 556 21,000  Level Cleveland Center
10:16PM 42.3511 -79.9492 91° East 482 555 21,000  Level Cleveland Center
10:17PM 42.3464 -79.7714 92° East 476 548 21,000  Level Cleveland Center
10:18PM 42.3425 -79.5919 92° East 477 549 21,000  Level Cleveland Center
10:19PM 42.3383 -79.4153 92° East 477 549 21,000  Level Cleveland Center
10:20PM 42.3331 -79.2000 92° East 477 549 21,000  Level Cleveland Center
10:21PM 42.3286 -79.0208 92° East 479 551 21,000  Level Cleveland Center
10:22PM 42.3242 -78.8522 92° East 479 551 21,000  Level Cleveland Center
10:23PM 42.3194 -78.6756 92° East 477 549 21,000 -180 Level Cleveland Center
10:24PM 42.3142 -78.4964 92° East 477 549 20,700 -1,080 Descending Cleveland Center
10:25PM 42.3072 -78.2867 92° East 474 545 18,800 -1,680 Descending Cleveland Center
10:26PM 42.3017 -78.1183 92° East 459 528 17,300 -1,080 Descending Cleveland Center
10:27PM 42.2956 -77.9511 93° East 456 525 16,700 -780 Descending Cleveland Center
10:29PM 42.2894 -77.7844 93° East 453 521 15,800 -840 Descending Cleveland Center
10:30PM 42.2833 -77.6142 93° East 455 524 15,000 -420 Descending Cleveland Center
10:31PM 42.2758 -77.4453 93° East 456 525 15,000  Level Cleveland Center
10:32PM 42.2689 -77.2497 93° East 445 512 15,000  Level Cleveland Center
10:33PM 42.2617 -77.0875 93° East 441 507 15,000 -300 Level Cleveland Center
10:34PM 42.2547 -76.9264 93° East 436 502 14,500 -900 Descending Cleveland Center
10:35PM 42.2486 -76.7833 93° East 383 441 13,200 -1,740 Descending Cleveland Center
10:36PM 42.2408 -76.6494 94° East 367 422 11,000 -1,680 Descending Cleveland Center
10:37PM 42.2356 -76.5192 93° East 354 407 9,800 -1,080 Descending Cleveland Center
10:38PM 42.2286 -76.3894 94° East 314 361 8,900 -1,440 Descending Cleveland Center
10:39PM 42.2231 -76.2744 94° East 308 354 6,900 -1,860 Descending Cleveland Center
10:40PM 42.2389 -76.1639 79° East 322 371 5,200 -1,620 Descending Cleveland Center
10:41PM 42.2975 -76.0836 45° Northeast 290 334 3,600 -1,140 Descending Cleveland Center
10:42PM 42.2633 -76.0217 127° Southeast 172 198 2,800 -660 Descending New York Center
10:43PM 42.2392 -76.0028 150° Southeast 131 151 2,200 -600 Descending New York Center